Air Quality Table

TIMESTAMP NO2 SO2 O3 PM10 PM2.5 TEMP HUM AIRPRES WS WD NO
2022-08-15 01:00 10.08 µg/m3 -0.08 µg/m3 82.79 µg/m3 22.3 µg/m3 9.9 µg/m3 29.44 °C 75.45 % 1,002.70 mbar 2.28 m/s 224.04 Deg 1.37 µg/m3
2022-08-14 01:00 11.91 µg/m3 -0.08 µg/m3 87.74 µg/m3 24.54 µg/m3 10.25 µg/m3 28.16 °C 73.88 % 1,005.43 mbar 2.6 m/s 254.52 Deg 1.73 µg/m3
2022-08-13 01:00 16.61 µg/m3 -0.04 µg/m3 80.34 µg/m3 29.8 µg/m3 10.09 µg/m3 27.47 °C 74.67 % 1,005.15 mbar 2.07 m/s 184.35 Deg 2.46 µg/m3
2022-08-12 01:00 12.12 µg/m3 -0.01 µg/m3 63.51 µg/m3 23.87 µg/m3 9.59 µg/m3 27.19 °C 79.73 % 1,005.92 mbar 2.24 m/s 173.99 Deg 2.15 µg/m3
2022-08-11 01:00 6.7 µg/m3 -0.05 µg/m3 69.26 µg/m3 21.57 µg/m3 8.86 µg/m3 28.16 °C 77.97 % 1,006.66 mbar 2.02 m/s 188.36 Deg 1.18 µg/m3
2022-08-10 01:00 12.73 µg/m3 -0.03 µg/m3 76.52 µg/m3 36.9 µg/m3 13.39 µg/m3 28.87 °C 78.06 % 1,006.70 mbar 1.9 m/s 203.68 Deg 1.77 µg/m3
2022-08-09 01:00 8.61 µg/m3 -0 µg/m3 82 µg/m3 28.74 µg/m3 12.86 µg/m3 28.59 °C 82.97 % 1,005.13 mbar 1.71 m/s 165.19 Deg 1.36 µg/m3
2022-08-08 01:00 10.9 µg/m3 0 µg/m3 76.14 µg/m3 26.59 µg/m3 10.47 µg/m3 28.78 °C 76.8 % 1,003.61 mbar 2.16 m/s 214.57 Deg 1.26 µg/m3
2022-08-07 01:00 10.83 µg/m3 0 µg/m3 71.65 µg/m3 26.73 µg/m3 10.57 µg/m3 29.67 °C 68.38 % 1,005.27 mbar 2.51 m/s 310.55 Deg 1.95 µg/m3
2022-08-06 01:00 16.25 µg/m3 0 µg/m3 75.64 µg/m3 28.73 µg/m3 10.5 µg/m3 29.36 °C 66.25 % 1,006.90 mbar 2.21 m/s 244.56 Deg 2.46 µg/m3
2022-08-05 01:00 13.54 µg/m3 0 µg/m3 86.98 µg/m3 28.24 µg/m3 12.3 µg/m3 28.57 °C 72.22 % 1,007.37 mbar 1.88 m/s 143.65 Deg 2.43 µg/m3
2022-08-04 01:00 10.81 µg/m3 0.88 µg/m3 71.71 µg/m3 22.62 µg/m3 8.37 µg/m3 28.36 °C 72.33 % 1,006.35 mbar 2.1 m/s 170.29 Deg 1.27 µg/m3
2022-08-03 01:00 9.23 µg/m3 0.08 µg/m3 55.74 µg/m3 21.23 µg/m3 11.06 µg/m3 28.2 °C 79.93 % 1,005.46 mbar 2.05 m/s 154.29 Deg 1.82 µg/m3
2022-08-02 01:00 4.52 µg/m3 0.04 µg/m3 77.95 µg/m3 21.48 µg/m3 9.04 µg/m3 28.42 °C 79.82 % 1,005.26 mbar 2.3 m/s 224.31 Deg 0.93 µg/m3
2022-08-01 01:00 6.24 µg/m3 0.05 µg/m3 77.06 µg/m3 30.61 µg/m3 11.39 µg/m3 28.97 °C 77.58 % 1,005.31 mbar 2.5 m/s 207.91 Deg 1.15 µg/m3
2022-07-31 01:00 11.63 µg/m3 0.1 µg/m3 52.91 µg/m3 39.46 µg/m3 13.24 µg/m3 30.06 °C 69.55 % 1,006.40 mbar 2.12 m/s 278.72 Deg 2.39 µg/m3
2022-07-30 01:00 10.33 µg/m3 0.06 µg/m3 70.92 µg/m3 28.63 µg/m3 9.43 µg/m3 29.4 °C 75.35 % 1,006.79 mbar 2.04 m/s 159.07 Deg 1.34 µg/m3
2022-07-29 01:00 8.35 µg/m3 0.06 µg/m3 72.03 µg/m3 46.42 µg/m3 16.84 µg/m3 28.32 °C 88.54 % 1,003.94 mbar 2.13 m/s 179.82 Deg 1.52 µg/m3
2022-07-28 01:00 11.09 µg/m3 0.07 µg/m3 70.37 µg/m3 40.98 µg/m3 14.54 µg/m3 28.91 °C 80.67 % 1,001.97 mbar 2.13 m/s 197.94 Deg 2.69 µg/m3
2022-07-27 01:00 10.82 µg/m3 0.1 µg/m3 74.31 µg/m3 36.65 µg/m3 12.43 µg/m3 29.91 °C 72.72 % 1,003.43 mbar 2.38 m/s 273.47 Deg 2.02 µg/m3
2022-07-26 01:00 18.79 µg/m3 0.08 µg/m3 73.75 µg/m3 29.34 µg/m3 9.96 µg/m3 30.62 °C 60.94 % 1,005.85 mbar 1.94 m/s 241.54 Deg 2.72 µg/m3
2022-07-25 01:00 8.8 µg/m3 0.07 µg/m3 71.99 µg/m3 27.31 µg/m3 12.14 µg/m3 29.19 °C 68.44 % 1,008.76 mbar 2.4 m/s 317.29 Deg 1.5 µg/m3
2022-07-24 01:00 15.32 µg/m3 0.09 µg/m3 77.11 µg/m3 30.93 µg/m3 10.63 µg/m3 29.06 °C 66.34 % 1,010.04 mbar 2.11 m/s 256.28 Deg 2.17 µg/m3
2022-07-23 01:00 14.13 µg/m3 0.1 µg/m3 71.98 µg/m3 31.78 µg/m3 15.24 µg/m3 28.45 °C 76.38 % 1,009.29 mbar 1.73 m/s 225.87 Deg 2.31 µg/m3
2022-07-22 01:00 15.21 µg/m3 0.08 µg/m3 83.33 µg/m3 31.33 µg/m3 13.45 µg/m3 28.16 °C 74.37 % 1,009.47 mbar 1.86 m/s 172.1 Deg 2.71 µg/m3
2022-07-21 01:00 6.11 µg/m3 0.05 µg/m3 98.56 µg/m3 26.82 µg/m3 12.64 µg/m3 27.65 °C 74.99 % 1,010.02 mbar 2.06 m/s 147.16 Deg 0.99 µg/m3
2022-07-20 01:00 9.49 µg/m3 0.07 µg/m3 98.72 µg/m3 29.67 µg/m3 14.09 µg/m3 28.15 °C 75.45 % 1,009.57 mbar 2.15 m/s 184.48 Deg 1.38 µg/m3
2022-07-19 01:00 17.05 µg/m3 0.1 µg/m3 85.96 µg/m3 25.08 µg/m3 10.48 µg/m3 28.54 °C 67.4 % 1,010.12 mbar 2.07 m/s 200.18 Deg 2.87 µg/m3
2022-07-18 01:00 14.34 µg/m3 0.1 µg/m3 78.12 µg/m3 21.93 µg/m3 10.57 µg/m3 27.68 °C 71.1 % 1,009.91 mbar 1.83 m/s 218.87 Deg 2.31 µg/m3
2022-07-17 01:00 12.37 µg/m3 0.11 µg/m3 80.89 µg/m3 22.41 µg/m3 8.22 µg/m3 27.1 °C 72.9 % 1,008.70 mbar 2.01 m/s 233.46 Deg 1.6 µg/m3

It is to be noted that the data is provisional and subject to quality assurance procedures. For validated data kindly refer your request to contact.air@era.org.mt